Portada
METAR-TAF:

METAR-TAF

Aeroports :

El Borma, Tunísia

latitud: 31-41N, longitud: 009-10E, altitud: 258 m

Observació

L'informe es va fer fa 27 minuts, a les 10:00 UTC
Vent 16 kt del Est/Nord-Est
Temperatura 33°C
Humitat 12%
Pressió 1020 hPa
Visibilitat 10 km o més
sense núvols per sota de 1500 mi sense presència de cumulonimbus.

METAR: DTTR 261000Z 06016KT CAVOK 33/M00 Q1020 NOSIG

Hora: 11:27 (10:27 UTC)

Pronòstic

L'informe es va fer fa 1 hora i 27 minuts, a les 09:00 UTC
Pronòstic vàlid del 26 a les 10 UTC al 26 a les 19 UTC
Vent 16 kt del Est/Nord-Est
Visibilitat 10 km o més
sense núvols per sota de 1500 mi sense presència de cumulonimbus.

TAF: DTTR 260900Z 2610/2619 07016KT CAVOK

Observacions i pronòstics meteorològics de més de 4000 aeroports (METAR i TAF).

Les estacions disponibles són els punts grocs i vermells al mapa.

Posi el ratolí al punt desitjat per veure el nom de l'estació.

Feu clic per veure les observacions i els pronòstics meteorològics.

Per canviar el mapa: feu clic els botons verds amb una creu de color negre per apropar; al botó verd amb un guió per allunyar la imatge; o en les fletxes verdes per a mapes adjacents.


METAR-TAF: